createdAt,value
2018-11-26T00:02:08.724Z,64.50
2018-11-26T00:04:38.310Z,64.50
2018-11-26T00:07:08.055Z,64.50
2018-11-26T00:09:37.698Z,64.40
2018-11-26T00:12:07.342Z,64.40
2018-11-26T00:14:37.883Z,64.30
2018-11-26T00:17:07.458Z,65.10
2018-11-26T00:19:37.092Z,64.20
2018-11-26T00:22:06.730Z,64.20
2018-11-26T00:24:36.317Z,64.20
2018-11-26T00:27:05.903Z,64.10
2018-11-26T00:29:35.550Z,64.20
2018-11-26T00:32:05.295Z,64.30
2018-11-26T00:34:34.984Z,64.40
2018-11-26T00:37:04.627Z,64.40
2018-11-26T00:39:34.274Z,64.50
2018-11-26T00:42:03.841Z,64.50
2018-11-26T00:44:33.508Z,64.60
2018-11-26T00:47:03.407Z,64.60
2018-11-26T00:49:33.065Z,64.50
2018-11-26T00:52:02.688Z,64.30
2018-11-26T00:54:32.295Z,64.20
2018-11-26T00:57:01.928Z,64.00
2018-11-26T00:59:31.643Z,64.10
2018-11-26T01:02:01.213Z,64.10
2018-11-26T01:04:32.017Z,64.20
2018-11-26T01:07:01.682Z,64.20
2018-11-26T01:09:31.225Z,64.20
2018-11-26T01:12:00.879Z,64.30
2018-11-26T01:14:30.535Z,64.40
2018-11-26T01:17:00.145Z,64.40
2018-11-26T01:19:29.854Z,64.40
2018-11-26T01:21:59.473Z,64.40
2018-11-26T01:24:29.231Z,64.30
2018-11-26T01:26:58.842Z,64.20
2018-11-26T01:29:28.447Z,64.10
2018-11-26T01:31:58.147Z,64.00
2018-11-26T01:34:27.775Z,64.10
2018-11-26T01:36:57.395Z,64.00
2018-11-26T01:39:27.111Z,64.10
2018-11-26T01:41:56.842Z,64.10
2018-11-26T01:44:26.639Z,64.20
2018-11-26T01:46:56.255Z,64.30
2018-11-26T01:49:25.946Z,64.30
2018-11-26T01:51:56.132Z,64.30
2018-11-26T01:54:25.892Z,64.30
2018-11-26T01:56:55.482Z,64.40
2018-11-26T01:59:25.108Z,64.60
2018-11-26T02:01:54.780Z,64.90
2018-11-26T02:04:24.361Z,64.90
2018-11-26T02:06:54.029Z,64.90
2018-11-26T02:09:23.635Z,65.00
2018-11-26T02:11:53.282Z,65.10
2018-11-26T02:14:22.926Z,65.10
2018-11-26T02:16:52.512Z,65.20
2018-11-26T02:19:22.082Z,65.20
2018-11-26T02:21:51.708Z,65.20
2018-11-26T02:24:21.315Z,65.30
2018-11-26T02:26:51.032Z,65.30
2018-11-26T02:29:20.637Z,65.40
2018-11-26T02:31:50.271Z,65.50
2018-11-26T02:34:20.203Z,65.60
2018-11-26T02:36:49.839Z,65.80
2018-11-26T02:39:19.510Z,65.80
2018-11-26T02:41:49.122Z,66.60
2018-11-26T02:44:18.775Z,65.90
2018-11-26T02:46:48.387Z,66.00
2018-11-26T02:49:18.043Z,65.90
2018-11-26T02:51:47.704Z,65.90
2018-11-26T02:54:17.346Z,66.00
2018-11-26T02:56:47.007Z,66.10
2018-11-26T02:59:16.734Z,66.20
2018-11-26T03:01:46.407Z,66.20
2018-11-26T03:04:16.227Z,66.40
2018-11-26T03:06:45.829Z,66.30
2018-11-26T03:09:15.737Z,66.50
2018-11-26T03:11:45.327Z,66.50
2018-11-26T03:14:15.119Z,66.70
2018-11-26T03:16:44.832Z,66.70
2018-11-26T03:19:14.412Z,66.50
2018-11-26T03:21:44.049Z,66.50
2018-11-26T03:24:13.774Z,66.40
2018-11-26T03:26:43.502Z,66.50
2018-11-26T03:29:13.109Z,66.50
2018-11-26T03:31:42.814Z,66.50
2018-11-26T03:34:12.424Z,66.70
2018-11-26T03:36:42.023Z,66.80
2018-11-26T03:39:11.667Z,66.70
2018-11-26T03:41:41.283Z,66.80
2018-11-26T03:44:10.877Z,66.80
2018-11-26T03:46:40.468Z,66.70
2018-11-26T03:49:10.158Z,66.70
2018-11-26T03:51:39.768Z,66.70
2018-11-26T03:54:09.423Z,66.70
2018-11-26T03:56:39.067Z,66.70
2018-11-26T03:59:08.688Z,66.60
2018-11-26T04:01:38.297Z,66.70
2018-11-26T04:04:07.939Z,66.70
2018-11-26T04:06:37.557Z,66.70
2018-11-26T04:09:07.923Z,66.70
2018-11-26T04:11:37.545Z,66.70
2018-11-26T04:14:07.146Z,66.70
2018-11-26T04:16:36.736Z,66.80
2018-11-26T04:19:06.375Z,66.90
2018-11-26T04:21:36.015Z,66.80
2018-11-26T04:24:06.012Z,66.80
2018-11-26T04:26:35.758Z,66.80
2018-11-26T04:29:05.735Z,66.80
2018-11-26T04:31:35.521Z,66.90
2018-11-26T04:34:05.161Z,66.90
2018-11-26T04:36:34.854Z,67.00
2018-11-26T04:39:06.065Z,67.20
2018-11-26T04:41:35.678Z,67.30
2018-11-26T04:44:05.529Z,67.30
2018-11-26T04:46:35.243Z,67.30
2018-11-26T04:49:05.436Z,67.30
2018-11-26T04:53:54.248Z,67.20
2018-11-26T04:56:23.894Z,66.90
2018-11-26T04:58:53.475Z,66.90
2018-11-26T05:01:23.098Z,66.80
2018-11-26T05:03:52.953Z,66.70
2018-11-26T05:06:22.587Z,66.70
2018-11-26T05:08:52.198Z,66.50
2018-11-26T05:11:21.822Z,66.50
2018-11-26T05:13:51.512Z,66.40
2018-11-26T05:16:21.194Z,66.40
2018-11-26T05:18:50.817Z,66.30
2018-11-26T05:21:20.422Z,66.30
2018-11-26T05:23:50.156Z,66.10
2018-11-26T05:26:19.849Z,66.00
2018-11-26T05:28:50.488Z,65.80
2018-11-26T05:31:20.399Z,65.70
2018-11-26T05:33:50.032Z,65.50
2018-11-26T05:36:19.731Z,65.40
2018-11-26T05:38:49.316Z,65.30
2018-11-26T05:41:19.387Z,65.20
2018-11-26T05:43:50.816Z,65.10
2018-11-26T05:46:20.502Z,65.10
2018-11-26T05:48:50.829Z,65.10
2018-11-26T05:51:21.322Z,65.10
2018-11-26T05:53:51.106Z,65.10
2018-11-26T05:56:20.727Z,65.00
2018-11-26T05:58:53.022Z,65.10
2018-11-26T06:01:23.307Z,65.10
2018-11-26T06:03:52.938Z,65.00
2018-11-26T06:06:22.571Z,65.00
2018-11-26T06:08:53.180Z,65.00
2018-11-26T06:11:25.764Z,64.90
2018-11-26T06:13:55.652Z,65.00
2018-11-26T06:16:25.306Z,65.00
2018-11-26T06:18:54.916Z,65.00
2018-11-26T06:21:24.570Z,65.10
2018-11-26T06:23:54.676Z,65.20
2018-11-26T06:26:24.286Z,65.20
2018-11-26T06:28:53.880Z,65.20
2018-11-26T06:31:23.525Z,65.30
2018-11-26T06:33:53.161Z,65.30
2018-11-26T06:36:22.850Z,65.40
2018-11-26T06:38:52.455Z,65.40
2018-11-26T06:41:22.221Z,65.50
2018-11-26T06:43:51.936Z,65.50
2018-11-26T06:46:21.536Z,65.40
2018-11-26T06:48:51.148Z,65.40
2018-11-26T06:51:20.777Z,65.50
2018-11-26T06:53:50.445Z,65.50
2018-11-26T06:56:20.205Z,65.40
2018-11-26T06:58:49.794Z,65.40
2018-11-26T07:01:19.583Z,65.40
2018-11-26T07:03:49.352Z,65.50
2018-11-26T07:06:19.113Z,65.40
2018-11-26T07:08:48.752Z,65.30
2018-11-26T07:11:18.330Z,65.30
2018-11-26T07:13:47.903Z,65.30
2018-11-26T07:16:17.575Z,65.20
2018-11-26T07:18:47.232Z,65.10
2018-11-26T07:21:16.855Z,65.20
2018-11-26T07:23:46.556Z,65.10
2018-11-26T07:26:16.314Z,65.00
2018-11-26T07:28:45.945Z,64.90
2018-11-26T07:31:15.540Z,65.00
2018-11-26T07:33:45.330Z,65.00
2018-11-26T07:36:15.009Z,65.00
2018-11-26T07:38:44.690Z,64.90
2018-11-26T07:41:14.397Z,64.90
2018-11-26T07:43:43.972Z,64.80
2018-11-26T07:46:13.627Z,64.80
2018-11-26T07:48:43.819Z,64.70
2018-11-26T07:51:13.597Z,64.70
2018-11-26T07:53:43.207Z,64.60
2018-11-26T07:56:13.020Z,64.60
2018-11-26T07:58:42.496Z,64.60
2018-11-26T08:01:12.060Z,64.60
2018-11-26T08:03:41.798Z,64.50
2018-11-26T08:06:11.419Z,64.50
2018-11-26T08:08:41.033Z,64.50
2018-11-26T08:11:10.671Z,64.40
2018-11-26T08:13:40.330Z,64.40
2018-11-26T08:16:10.249Z,64.30
2018-11-26T08:18:39.897Z,64.20
2018-11-26T08:21:09.635Z,64.10
2018-11-26T08:23:39.344Z,64.00
2018-11-26T08:26:09.041Z,63.90
2018-11-26T08:28:38.958Z,63.90
2018-11-26T08:31:09.163Z,63.70
2018-11-26T08:33:38.877Z,63.60
2018-11-26T08:36:13.935Z,63.30
2018-11-26T08:38:45.650Z,63.10
2018-11-26T08:41:16.244Z,63.30
2018-11-26T08:43:51.145Z,63.20
2018-11-26T08:46:26.223Z,63.10
2018-11-26T08:49:01.239Z,62.90
2018-11-26T08:51:31.013Z,62.90
2018-11-26T08:54:00.574Z,62.70
2018-11-26T08:56:30.402Z,62.50
2018-11-26T08:59:00.095Z,62.30
2018-11-26T09:01:39.090Z,62.30
2018-11-26T09:04:10.273Z,62.40
2018-11-26T09:06:39.978Z,62.20
2018-11-26T09:09:10.474Z,62.20
2018-11-26T09:11:40.129Z,62.30
2018-11-26T09:14:09.745Z,62.10
2018-11-26T09:16:39.416Z,62.10
2018-11-26T09:19:09.040Z,61.80
2018-11-26T09:21:38.768Z,61.80
2018-11-26T09:24:08.380Z,61.70
2018-11-26T09:26:38.203Z,61.70
2018-11-26T09:29:07.763Z,61.50
2018-11-26T09:31:37.396Z,61.30
2018-11-26T09:34:07.239Z,61.30
2018-11-26T09:36:36.821Z,61.20
2018-11-26T09:45:54.752Z,61.20
2018-11-26T09:48:24.419Z,60.80
2018-11-26T09:50:54.283Z,60.50
2018-11-26T09:53:23.983Z,60.50
2018-11-26T09:55:53.815Z,60.50
2018-11-26T09:58:23.422Z,60.50
2018-11-26T10:00:53.169Z,60.60
2018-11-26T10:03:22.941Z,60.30
2018-11-26T10:05:52.730Z,60.40
2018-11-26T10:08:22.327Z,60.30
2018-11-26T10:10:52.094Z,60.30
2018-11-26T10:13:21.787Z,60.20
2018-11-26T10:15:51.555Z,60.20
2018-11-26T10:18:21.283Z,59.90
2018-11-26T10:20:51.030Z,59.70
2018-11-26T10:23:20.708Z,59.70
2018-11-26T10:25:50.595Z,59.60
2018-11-26T10:28:20.290Z,59.30
2018-11-26T10:30:49.907Z,59.20
2018-11-26T10:33:19.604Z,59.10
2018-11-26T10:35:49.272Z,59.20
2018-11-26T10:38:18.893Z,59.10
2018-11-26T10:40:48.538Z,59.10
2018-11-26T10:43:18.251Z,58.80
2018-11-26T10:45:47.990Z,58.80
2018-11-26T10:48:17.541Z,58.90
2018-11-26T10:50:47.174Z,58.80
2018-11-26T10:53:16.755Z,59.20
2018-11-26T10:55:46.430Z,58.70
2018-11-26T10:58:16.071Z,58.40
2018-11-26T11:00:51.162Z,58.50
2018-11-26T11:03:20.766Z,58.10
2018-11-26T11:05:50.707Z,57.50
2018-11-26T11:08:20.343Z,57.70
2018-11-26T11:10:49.969Z,57.70
2018-11-26T11:13:19.787Z,57.80
2018-11-26T11:15:49.571Z,57.70
2018-11-26T11:18:19.336Z,57.50
2018-11-26T11:20:48.916Z,57.50
2018-11-26T11:23:18.599Z,57.50
2018-11-26T11:25:48.275Z,57.20
2018-11-26T11:28:18.095Z,57.10
2018-11-26T11:30:47.914Z,57.00
2018-11-26T11:35:46.772Z,56.20
2018-11-26T11:38:16.389Z,56.40
2018-11-26T11:40:46.138Z,56.70
2018-11-26T11:43:15.837Z,57.10
2018-11-26T11:45:45.461Z,56.40
2018-11-26T11:48:15.176Z,56.50
2018-11-26T11:50:44.923Z,56.50
2018-11-26T11:53:14.543Z,56.50
2018-11-26T11:55:44.185Z,56.40
2018-11-26T11:58:13.863Z,56.40
2018-11-26T12:00:45.381Z,56.50
2018-11-26T12:03:19.079Z,56.30
2018-11-26T12:05:48.808Z,56.30
2018-11-26T12:08:18.472Z,56.20
2018-11-26T12:10:48.053Z,56.30
2018-11-26T12:13:17.941Z,56.30
2018-11-26T12:15:49.408Z,56.10
2018-11-26T12:18:19.155Z,56.30
2018-11-26T12:20:48.832Z,56.50
2018-11-26T12:23:18.477Z,56.70
2018-11-26T12:25:48.094Z,56.80
2018-11-26T12:28:17.740Z,56.80
2018-11-26T12:30:47.579Z,56.90
2018-11-26T12:33:17.207Z,56.90
2018-11-26T12:35:46.840Z,57.00
2018-11-26T12:38:16.452Z,57.10
2018-11-26T12:40:46.110Z,57.20
2018-11-26T12:43:15.911Z,57.30
2018-11-26T12:45:45.615Z,57.40
2018-11-26T12:48:15.756Z,57.40
2018-11-26T12:50:45.579Z,57.50
2018-11-26T12:53:15.357Z,57.30
2018-11-26T12:55:45.130Z,57.50
2018-11-26T12:58:14.760Z,57.60
2018-11-26T13:00:44.390Z,57.80
2018-11-26T13:03:14.398Z,57.60
2018-11-26T13:05:44.084Z,57.50
2018-11-26T13:08:15.680Z,57.50
2018-11-26T13:10:45.391Z,57.60
2018-11-26T13:13:15.059Z,57.50
2018-11-26T13:15:44.821Z,57.60
2018-11-26T13:18:14.476Z,57.60
2018-11-26T13:20:44.180Z,57.60
2018-11-26T13:23:13.794Z,57.60
2018-11-26T13:25:43.580Z,57.70
2018-11-26T13:28:13.425Z,57.70
2018-11-26T13:30:45.361Z,57.80
2018-11-26T13:33:16.329Z,57.80
2018-11-26T13:35:46.870Z,57.90
2018-11-26T13:38:16.655Z,57.80
2018-11-26T13:40:46.245Z,57.90
2018-11-26T13:43:16.868Z,57.80
2018-11-26T13:45:47.899Z,57.90
2018-11-26T13:48:18.782Z,57.90
2018-11-26T13:50:52.876Z,57.80
2018-11-26T13:53:25.517Z,57.90
2018-11-26T13:55:55.365Z,58.00
2018-11-26T13:58:25.125Z,58.00
2018-11-26T14:00:54.887Z,58.00
2018-11-26T14:03:24.592Z,58.00
2018-11-26T14:05:54.353Z,58.00
2018-11-26T14:08:24.116Z,58.00
2018-11-26T14:10:53.877Z,58.00
2018-11-26T14:13:23.597Z,58.10
2018-11-26T14:15:53.585Z,58.00
2018-11-26T14:18:23.426Z,58.10
2018-11-26T14:20:53.277Z,58.10
2018-11-26T14:23:22.941Z,58.10
2018-11-26T14:25:52.872Z,58.10
2018-11-26T14:28:22.985Z,58.10
2018-11-26T14:30:52.681Z,58.10
2018-11-26T14:33:22.421Z,58.00
2018-11-26T14:35:52.177Z,58.60
2018-11-26T14:38:21.836Z,58.10
2018-11-26T14:40:53.465Z,58.10
2018-11-26T14:43:23.231Z,58.10
2018-11-26T14:45:53.076Z,58.10
2018-11-26T14:48:22.709Z,58.20
2018-11-26T14:50:52.398Z,58.20
2018-11-26T14:53:22.191Z,58.20
2018-11-26T14:55:52.046Z,58.30
2018-11-26T14:58:21.678Z,58.30
2018-11-26T15:00:51.556Z,58.40
2018-11-26T15:03:21.193Z,58.30
2018-11-26T15:05:51.060Z,58.40
2018-11-26T15:08:20.893Z,58.40
2018-11-26T15:10:50.635Z,58.60
2018-11-26T15:13:20.555Z,58.60
2018-11-26T15:15:50.380Z,58.70
2018-11-26T15:18:20.088Z,58.70
2018-11-26T15:20:49.694Z,58.70
2018-11-26T15:23:19.485Z,58.70
2018-11-26T15:25:49.622Z,58.80
2018-11-26T15:28:19.526Z,58.80
2018-11-26T15:30:49.212Z,58.90
2018-11-26T15:33:19.040Z,58.80
2018-11-26T15:35:48.943Z,58.90
2018-11-26T15:38:18.624Z,58.90
2018-11-26T15:40:48.674Z,58.80
2018-11-26T15:43:18.244Z,58.70
2018-11-26T15:45:47.955Z,58.70
2018-11-26T15:48:17.651Z,58.60
2018-11-26T15:50:47.276Z,58.50
2018-11-26T15:53:16.933Z,58.50
2018-11-26T15:55:46.741Z,58.40
2018-11-26T15:58:16.630Z,58.50
2018-11-26T16:00:46.947Z,58.60
2018-11-26T16:03:16.605Z,58.50
2018-11-26T16:05:46.507Z,58.40
2018-11-26T16:08:17.333Z,58.40
2018-11-26T16:10:47.086Z,58.40
2018-11-26T16:13:16.870Z,58.40
2018-11-26T16:15:46.787Z,58.40
2018-11-26T16:18:19.041Z,58.40
2018-11-26T16:20:49.593Z,58.40
2018-11-26T16:23:19.374Z,58.50
2018-11-26T16:25:49.613Z,58.50
2018-11-26T16:28:20.891Z,58.50
2018-11-26T16:30:50.501Z,58.50
2018-11-26T16:33:20.269Z,58.50
2018-11-26T16:35:50.051Z,58.50
2018-11-26T16:38:19.765Z,58.60
2018-11-26T16:40:49.419Z,58.50
2018-11-26T16:43:19.150Z,58.50
2018-11-26T16:45:49.280Z,58.50
2018-11-26T16:48:18.906Z,58.40
2018-11-26T16:50:48.588Z,58.50
2018-11-26T16:53:19.461Z,58.50
2018-11-26T16:55:48.132Z,58.60
2018-11-26T16:58:17.756Z,58.60
2018-11-26T17:00:47.384Z,58.60
2018-11-26T17:03:17.102Z,58.60
2018-11-26T17:05:46.862Z,58.60
2018-11-26T17:08:16.575Z,58.70
2018-11-26T17:10:46.443Z,58.80
2018-11-26T17:13:16.084Z,58.70
2018-11-26T17:15:45.893Z,58.70
2018-11-26T17:18:15.953Z,58.80
2018-11-26T17:20:45.592Z,58.80
2018-11-26T17:23:15.196Z,58.80
2018-11-26T17:25:44.937Z,58.90
2018-11-26T17:28:14.544Z,58.90
2018-11-26T17:30:44.348Z,58.90
2018-11-26T17:33:14.087Z,58.90
2018-11-26T17:35:43.851Z,58.90
2018-11-26T17:38:13.557Z,58.90
2018-11-26T17:40:43.704Z,58.90
2018-11-26T17:43:14.435Z,59.00
2018-11-26T17:45:44.100Z,59.00
2018-11-26T17:48:13.815Z,59.00
2018-11-26T17:50:44.548Z,59.20
2018-11-26T17:53:16.447Z,59.10
2018-11-26T17:55:54.632Z,59.10
2018-11-26T17:58:25.501Z,59.00
2018-11-26T18:01:29.027Z,59.10
2018-11-26T18:03:58.889Z,59.00
2018-11-26T18:06:28.561Z,59.00
2018-11-26T18:08:58.168Z,59.00
2018-11-26T18:11:27.924Z,59.00
2018-11-26T18:13:57.579Z,58.90
2018-11-26T18:16:27.405Z,59.00
2018-11-26T18:18:57.086Z,58.90
2018-11-26T18:21:26.801Z,59.00
2018-11-26T18:23:57.451Z,58.90
2018-11-26T18:26:27.131Z,58.90
2018-11-26T18:31:40.859Z,58.90
2018-11-26T18:34:10.480Z,58.80
2018-11-26T18:36:40.259Z,58.80
2018-11-26T18:39:10.566Z,58.80
2018-11-26T18:41:40.203Z,58.80
2018-11-26T18:44:09.851Z,58.80
2018-11-26T18:46:39.484Z,58.80
2018-11-26T18:49:09.128Z,58.70
2018-11-26T18:51:38.719Z,58.80
2018-11-26T18:54:08.380Z,58.80
2018-11-26T18:56:38.190Z,58.80
2018-11-26T18:59:07.761Z,58.80
2018-11-26T19:01:37.520Z,58.90
2018-11-26T19:04:07.366Z,58.80
2018-11-26T19:06:37.098Z,58.80
2018-11-26T19:09:08.494Z,58.70
2018-11-26T19:11:38.039Z,58.80
2018-11-26T19:14:11.012Z,58.80
2018-11-26T19:16:44.769Z,58.80
2018-11-26T19:19:14.400Z,58.70
2018-11-26T19:21:44.193Z,58.70
2018-11-26T19:24:14.517Z,58.80
2018-11-26T19:26:45.320Z,58.70
2018-11-26T19:29:16.025Z,58.70
2018-11-26T19:31:46.030Z,58.60
2018-11-26T19:34:15.968Z,58.60
2018-11-26T19:36:45.972Z,58.60
2018-11-26T19:39:15.867Z,58.70
2018-11-26T19:41:45.693Z,58.70
2018-11-26T19:44:15.384Z,58.70
2018-11-26T19:46:45.159Z,58.60
2018-11-26T19:49:14.752Z,58.70
2018-11-26T19:51:44.480Z,58.50
2018-11-26T19:54:14.285Z,58.50
2018-11-26T19:56:44.536Z,58.40
2018-11-26T19:59:14.141Z,58.50
2018-11-26T20:01:43.872Z,58.40
2018-11-26T20:04:25.208Z,58.40
2018-11-26T20:06:55.065Z,58.30
2018-11-26T20:09:24.671Z,58.40
2018-11-26T20:11:54.483Z,58.40
2018-11-26T20:14:26.056Z,58.40
2018-11-26T20:16:53.984Z,58.40
2018-11-26T20:19:24.878Z,58.50
2018-11-26T20:21:54.532Z,58.30
2018-11-26T20:24:24.291Z,58.40
2018-11-26T20:26:53.920Z,58.40
2018-11-26T20:29:23.587Z,58.50
2018-11-26T20:31:53.195Z,58.30
2018-11-26T20:34:22.803Z,58.40
2018-11-26T20:36:52.552Z,58.30
2018-11-26T20:39:22.285Z,58.20
2018-11-26T20:41:52.079Z,58.20
2018-11-26T20:44:21.661Z,58.20
2018-11-26T20:46:51.308Z,58.30
2018-11-26T20:49:21.332Z,58.30
2018-11-26T20:51:51.017Z,58.20
2018-11-26T20:54:20.909Z,58.10
2018-11-26T20:56:50.624Z,58.00
2018-11-26T20:59:20.484Z,57.90
2018-11-26T21:01:50.212Z,57.90
2018-11-26T21:04:20.335Z,57.80
2018-11-26T21:06:57.195Z,57.90
2018-11-26T21:09:29.039Z,57.90
2018-11-26T21:11:59.045Z,57.80
2018-11-26T21:14:29.863Z,57.80
2018-11-26T21:16:59.573Z,57.90
2018-11-26T21:19:29.552Z,57.90
2018-11-26T21:21:59.450Z,57.90
2018-11-26T21:24:29.227Z,57.90
2018-11-26T21:26:59.971Z,57.90
2018-11-26T21:29:29.308Z,58.00
2018-11-26T21:32:00.124Z,58.00
2018-11-26T21:34:31.234Z,58.60
2018-11-26T21:37:01.261Z,58.10
2018-11-26T21:39:31.042Z,58.10
2018-11-26T21:42:01.171Z,58.20
2018-11-26T21:44:33.585Z,58.40
2018-11-26T21:47:04.368Z,58.30
2018-11-26T21:49:34.439Z,58.30
2018-11-26T21:52:06.591Z,58.40
2018-11-26T21:54:36.515Z,58.30
2018-11-26T21:57:06.935Z,58.30
2018-11-26T21:59:36.566Z,58.30
2018-11-26T22:02:06.370Z,58.30
2018-11-26T22:04:35.984Z,58.30
2018-11-26T22:07:05.679Z,58.40
2018-11-26T22:09:35.729Z,58.30
2018-11-26T22:12:05.425Z,58.30
2018-11-26T22:14:35.122Z,58.30
2018-11-26T22:17:05.406Z,58.40
2018-11-26T22:19:35.231Z,58.50
2018-11-26T22:22:05.051Z,58.40
2018-11-26T22:24:35.359Z,58.40
2018-11-26T22:27:05.029Z,58.40
2018-11-26T22:29:35.180Z,58.40
2018-11-26T22:32:04.885Z,58.40
2018-11-26T22:34:34.570Z,58.40
2018-11-26T22:37:04.305Z,58.40
2018-11-26T22:39:33.973Z,58.40
2018-11-26T22:42:03.609Z,58.40
2018-11-26T22:44:33.237Z,58.40
2018-11-26T22:47:02.985Z,58.20
2018-11-26T22:49:32.618Z,58.30
2018-11-26T22:52:02.312Z,58.40
2018-11-26T22:54:31.902Z,58.40
2018-11-26T22:57:01.553Z,58.50
2018-11-26T22:59:31.233Z,58.50
2018-11-26T23:02:00.931Z,58.50
2018-11-26T23:04:30.528Z,58.50
2018-11-26T23:07:00.157Z,58.40
2018-11-26T23:09:29.741Z,58.50
2018-11-26T23:11:59.324Z,58.50
2018-11-26T23:14:29.336Z,58.50
2018-11-26T23:16:59.152Z,58.50
2018-11-26T23:19:28.739Z,58.50
2018-11-26T23:21:58.389Z,58.50
2018-11-26T23:24:28.017Z,58.50
2018-11-26T23:26:57.608Z,58.50
2018-11-26T23:29:27.289Z,58.60
2018-11-26T23:31:56.891Z,58.50
2018-11-26T23:34:26.661Z,58.60
2018-11-26T23:36:56.256Z,58.50
2018-11-26T23:39:25.874Z,58.50
2018-11-26T23:41:55.505Z,58.50
2018-11-26T23:44:25.098Z,58.50
2018-11-26T23:46:54.749Z,58.50
2018-11-26T23:49:24.463Z,58.50
2018-11-26T23:51:54.132Z,58.50
2018-11-26T23:54:23.917Z,58.60
2018-11-26T23:56:53.554Z,58.50
2018-11-26T23:59:23.204Z,58.70
